createdAt,value
2018-12-20T00:01:20.760Z,25.18
2018-12-20T00:02:20.782Z,25.18
2018-12-20T00:04:13.857Z,25.09
2018-12-20T00:05:13.792Z,25.18
2018-12-20T00:07:06.784Z,24.90
2018-12-20T00:08:06.837Z,24.52
2018-12-20T00:09:59.808Z,24.90
2018-12-20T00:10:59.985Z,25.09
2018-12-20T00:12:52.842Z,25.18
2018-12-20T00:13:52.892Z,24.99
2018-12-20T00:15:45.875Z,24.80
2018-12-20T00:16:45.930Z,24.71
2018-12-20T00:18:38.912Z,24.71
2018-12-20T00:19:39.035Z,24.71
2018-12-20T00:21:32.060Z,24.80
2018-12-20T00:22:32.103Z,24.71
2018-12-20T00:24:25.002Z,24.52
2018-12-20T00:25:25.208Z,24.51
2018-12-20T00:27:18.005Z,24.61
2018-12-20T00:28:18.055Z,24.71
2018-12-20T00:30:11.045Z,24.60
2018-12-20T00:31:13.675Z,24.41
2018-12-20T00:33:04.107Z,24.03
2018-12-20T00:34:04.142Z,24.03
2018-12-20T00:35:57.138Z,23.84
2018-12-20T00:36:57.207Z,23.36
2018-12-20T00:38:50.248Z,22.99
2018-12-20T00:39:50.193Z,23.08
2018-12-20T00:41:43.683Z,22.60
2018-12-20T00:42:43.781Z,22.60
2018-12-20T00:44:37.460Z,22.60
2018-12-20T00:45:36.760Z,22.70
2018-12-20T00:47:29.873Z,22.70
2018-12-20T00:48:29.820Z,22.60
2018-12-20T00:50:22.764Z,23.08
2018-12-20T00:51:22.820Z,22.80
2018-12-20T00:53:15.808Z,22.80
2018-12-20T00:54:15.972Z,22.99
2018-12-20T00:56:08.843Z,22.51
2018-12-20T00:57:08.902Z,22.22
2018-12-20T00:59:01.899Z,22.13
2018-12-20T01:00:02.007Z,22.41
2018-12-20T01:01:54.957Z,22.51
2018-12-20T01:02:55.364Z,22.51
2018-12-20T01:04:47.933Z,22.41
2018-12-20T01:05:48.156Z,22.13
2018-12-20T01:07:41.108Z,22.60
2018-12-20T01:08:41.054Z,22.88
2018-12-20T01:10:34.113Z,22.31
2018-12-20T01:11:34.082Z,21.84
2018-12-20T01:13:27.148Z,21.28
2018-12-20T01:14:27.086Z,21.26
2018-12-20T01:16:20.068Z,21.47
2018-12-20T01:17:20.201Z,21.55
2018-12-20T01:19:13.249Z,21.08
2018-12-20T01:20:13.255Z,21.08
2018-12-20T01:22:06.149Z,21.55
2018-12-20T01:23:06.379Z,21.83
2018-12-20T01:24:59.162Z,22.40
2018-12-20T01:25:59.216Z,22.40
2018-12-20T01:27:52.199Z,22.21
2018-12-20T01:28:52.375Z,22.40
2018-12-20T01:30:45.284Z,22.12
2018-12-20T01:31:45.282Z,21.45
2018-12-20T01:33:38.304Z,20.79
2018-12-20T01:34:38.316Z,20.12
2018-12-20T01:36:31.303Z,20.69
2018-12-20T01:37:31.679Z,20.41
2018-12-20T01:39:24.353Z,20.60
2018-12-20T01:40:24.381Z,20.14
2018-12-20T01:42:17.440Z,20.23
2018-12-20T01:43:17.409Z,20.23
2018-12-20T01:45:10.533Z,20.32
2018-12-20T01:46:10.604Z,20.61
2018-12-20T01:48:03.448Z,20.80
2018-12-20T01:49:03.569Z,21.08
2018-12-20T01:50:56.453Z,21.18
2018-12-20T01:51:56.562Z,21.47
2018-12-20T01:53:49.615Z,21.56
2018-12-20T01:54:49.540Z,21.28
2018-12-20T01:56:42.528Z,21.56
2018-12-20T01:57:42.573Z,21.56
2018-12-20T01:59:35.739Z,21.94
2018-12-20T02:00:35.611Z,22.03
2018-12-20T02:02:28.593Z,22.89
2018-12-20T02:03:28.813Z,22.41
2018-12-20T02:05:21.759Z,22.32
2018-12-20T02:06:21.696Z,22.41
2018-12-20T02:08:14.692Z,22.33
2018-12-20T02:09:14.756Z,22.80
2018-12-20T02:11:07.792Z,22.60
2018-12-20T02:12:07.869Z,22.99
2018-12-20T02:14:00.825Z,22.61
2018-12-20T02:15:01.800Z,22.61
2018-12-20T02:16:53.808Z,22.52
2018-12-20T02:17:53.992Z,23.09
2018-12-20T02:19:46.788Z,22.71
2018-12-20T02:20:46.968Z,22.90
2018-12-20T02:22:39.955Z,23.38
2018-12-20T02:23:39.879Z,23.47
2018-12-20T02:25:32.854Z,23.28
2018-12-20T02:26:32.908Z,23.75
2018-12-20T02:28:25.970Z,23.85
2018-12-20T02:29:26.025Z,23.94
2018-12-20T02:31:18.922Z,23.85
2018-12-20T02:32:18.979Z,23.85
2018-12-20T02:34:12.534Z,23.75
2018-12-20T02:35:12.762Z,24.04
2018-12-20T02:37:05.616Z,24.04
2018-12-20T02:38:05.686Z,24.04
2018-12-20T02:39:58.732Z,24.42
2018-12-20T02:40:58.580Z,24.61
2018-12-20T02:42:51.569Z,24.52
2018-12-20T02:43:51.619Z,24.71
2018-12-20T02:45:44.755Z,24.99
2018-12-20T02:46:44.645Z,24.61
2018-12-20T02:48:37.648Z,24.99
2018-12-20T02:49:37.676Z,24.80
2018-12-20T02:51:30.840Z,25.18
2018-12-20T02:52:30.705Z,25.09
2018-12-20T02:54:23.876Z,24.90
2018-12-20T02:55:23.891Z,24.71
2018-12-20T02:57:16.771Z,25.18
2018-12-20T02:58:16.955Z,24.71
2018-12-20T03:00:09.853Z,24.61
2018-12-20T03:01:09.942Z,24.52
2018-12-20T03:03:02.792Z,24.61
2018-12-20T03:04:02.839Z,24.33
2018-12-20T03:05:56.010Z,24.52
2018-12-20T03:06:55.975Z,24.42
2018-12-20T03:08:48.849Z,24.71
2018-12-20T03:09:49.102Z,25.18
2018-12-20T03:11:41.879Z,25.09
2018-12-20T03:12:41.940Z,25.09
2018-12-20T03:14:34.933Z,25.56
2018-12-20T03:15:35.196Z,25.09
2018-12-20T03:17:28.454Z,24.99
2018-12-20T03:18:28.584Z,25.09
2018-12-20T03:20:21.483Z,25.09
2018-12-20T03:21:21.685Z,24.99
2018-12-20T03:23:14.533Z,25.27
2018-12-20T03:24:14.790Z,25.27
2018-12-20T03:26:07.701Z,24.99
2018-12-20T03:27:07.602Z,24.90
2018-12-20T03:29:00.583Z,24.71
2018-12-20T03:30:00.762Z,24.80
2018-12-20T03:31:54.034Z,24.90
2018-12-20T03:32:53.675Z,24.99
2018-12-20T03:34:46.719Z,24.99
2018-12-20T03:35:46.714Z,24.99
2018-12-20T03:37:39.686Z,25.27
2018-12-20T03:38:39.735Z,24.90
2018-12-20T03:40:32.711Z,24.42
2018-12-20T03:41:32.767Z,24.33
2018-12-20T03:43:25.750Z,24.33
2018-12-20T03:44:25.994Z,24.33
2018-12-20T03:46:19.292Z,24.52
2018-12-20T03:47:19.439Z,24.42
2018-12-20T03:49:12.400Z,23.94
2018-12-20T03:50:12.380Z,24.13
2018-12-20T03:52:05.356Z,23.94
2018-12-20T03:53:05.413Z,24.04
2018-12-20T03:54:58.395Z,23.85
2018-12-20T03:55:58.601Z,23.85
2018-12-20T03:57:51.496Z,23.94
2018-12-20T03:58:51.595Z,23.75
2018-12-20T04:00:44.602Z,23.94
2018-12-20T04:01:44.510Z,24.13
2018-12-20T04:03:37.575Z,24.13
2018-12-20T04:04:37.664Z,24.04
2018-12-20T04:06:30.547Z,23.85
2018-12-20T04:07:30.613Z,24.04
2018-12-20T04:09:23.590Z,24.52
2018-12-20T04:10:23.808Z,24.71
2018-12-20T04:12:16.626Z,24.61
2018-12-20T04:13:16.731Z,24.52
2018-12-20T04:15:09.657Z,24.81
2018-12-20T04:16:09.767Z,24.71
2018-12-20T04:18:02.669Z,25.09
2018-12-20T04:19:02.713Z,24.81
2018-12-20T04:20:55.854Z,24.91
2018-12-20T04:21:55.977Z,24.42
2018-12-20T04:23:49.036Z,24.72
2018-12-20T04:24:48.778Z,24.42
2018-12-20T04:26:41.802Z,24.81
2018-12-20T04:27:42.102Z,24.80
2018-12-20T04:29:34.797Z,25.18
2018-12-20T04:30:34.845Z,24.81
2018-12-20T04:32:27.922Z,24.43
2018-12-20T04:33:27.938Z,24.62
2018-12-20T04:35:20.859Z,24.53
2018-12-20T04:36:20.978Z,24.53
2018-12-20T04:38:13.961Z,24.91
2018-12-20T04:39:14.156Z,25.10
2018-12-20T04:41:07.575Z,24.53
2018-12-20T04:42:07.736Z,24.62
2018-12-20T04:44:00.575Z,24.53
2018-12-20T04:45:00.511Z,24.62
2018-12-20T04:46:53.633Z,24.72
2018-12-20T04:47:53.543Z,24.62
2018-12-20T04:49:46.527Z,24.72
2018-12-20T04:50:46.784Z,24.62
2018-12-20T04:52:39.550Z,24.62
2018-12-20T04:53:39.610Z,24.62
2018-12-20T04:55:32.886Z,24.53
2018-12-20T04:56:32.658Z,24.62
2018-12-20T04:58:25.787Z,24.81
2018-12-20T04:59:25.904Z,24.53
2018-12-20T05:01:18.663Z,24.43
2018-12-20T05:02:18.872Z,24.72
2018-12-20T05:04:11.858Z,24.62
2018-12-20T05:05:11.834Z,24.72
2018-12-20T05:07:04.880Z,24.53
2018-12-20T05:08:04.789Z,24.43
2018-12-20T05:09:57.863Z,24.53
2018-12-20T05:10:57.949Z,24.43
2018-12-20T05:12:50.803Z,24.81
2018-12-20T05:13:50.837Z,24.72
2018-12-20T05:15:43.829Z,24.34
2018-12-20T05:16:43.887Z,24.72
2018-12-20T05:18:36.853Z,24.53
2018-12-20T05:19:37.123Z,24.62
2018-12-20T05:21:29.957Z,23.86
2018-12-20T05:22:30.098Z,23.86
2018-12-20T05:24:22.943Z,23.96
2018-12-20T05:25:22.969Z,23.77
2018-12-20T05:27:16.217Z,24.05
2018-12-20T05:28:16.011Z,24.05
2018-12-20T05:30:09.138Z,23.86
2018-12-20T05:31:09.043Z,23.96
2018-12-20T05:33:02.062Z,23.58
2018-12-20T05:34:02.326Z,23.67
2018-12-20T05:35:55.062Z,24.05
2018-12-20T05:36:55.175Z,24.05
2018-12-20T05:38:48.094Z,23.86
2018-12-20T05:39:48.194Z,23.58
2018-12-20T05:41:41.188Z,23.67
2018-12-20T05:42:41.187Z,23.77
2018-12-20T05:44:34.253Z,23.20
2018-12-20T05:45:34.256Z,23.20
2018-12-20T05:47:27.438Z,22.53
2018-12-20T05:48:27.250Z,22.72
2018-12-20T05:50:20.231Z,22.44
2018-12-20T05:51:20.299Z,22.34
2018-12-20T05:53:13.256Z,21.96
2018-12-20T05:54:13.354Z,22.06
2018-12-20T05:56:06.302Z,21.96
2018-12-20T05:57:06.377Z,21.58
2018-12-20T05:58:59.457Z,21.39
2018-12-20T05:59:59.396Z,21.58
2018-12-20T06:01:52.486Z,21.01
2018-12-20T06:02:52.507Z,21.30
2018-12-20T06:04:45.432Z,21.11
2018-12-20T06:05:45.544Z,21.20
2018-12-20T06:07:38.481Z,21.11
2018-12-20T06:08:38.481Z,20.82
2018-12-20T06:10:31.464Z,20.34
2018-12-20T06:11:31.512Z,20.25
2018-12-20T06:13:24.667Z,20.63
2018-12-20T06:14:24.649Z,20.53
2018-12-20T06:16:17.648Z,19.78
2018-12-20T06:17:17.603Z,19.30
2018-12-20T06:19:10.777Z,19.49
2018-12-20T06:20:10.637Z,19.01
2018-12-20T06:22:03.601Z,19.30
2018-12-20T06:23:03.731Z,19.20
2018-12-20T06:24:56.642Z,18.92
2018-12-20T06:25:56.707Z,19.20
2018-12-20T06:27:50.171Z,19.01
2018-12-20T06:28:50.228Z,19.20
2018-12-20T06:30:43.214Z,19.01
2018-12-20T06:31:43.263Z,19.11
2018-12-20T06:33:36.285Z,19.01
2018-12-20T06:34:36.309Z,19.01
2018-12-20T06:36:29.278Z,19.01
2018-12-20T06:37:29.329Z,19.11
2018-12-20T06:39:22.323Z,18.54
2018-12-20T06:40:22.374Z,18.35
2018-12-20T06:42:15.348Z,18.63
2018-12-20T06:43:15.410Z,18.43
2018-12-20T06:45:08.390Z,18.43
2018-12-20T06:46:08.435Z,18.24
2018-12-20T06:48:01.412Z,18.54
2018-12-20T06:49:01.470Z,18.53
2018-12-20T06:50:54.454Z,18.05
2018-12-20T06:51:55.912Z,18.44
2018-12-20T06:53:47.480Z,18.24
2018-12-20T06:54:47.537Z,18.53
2018-12-20T06:56:40.521Z,18.26
2018-12-20T06:57:40.571Z,18.26
2018-12-20T06:59:33.569Z,18.54
2018-12-20T07:00:33.611Z,18.43
2018-12-20T07:02:26.589Z,18.63
2018-12-20T07:03:26.690Z,18.43
2018-12-20T07:05:19.634Z,19.01
2018-12-20T07:06:19.680Z,19.11
2018-12-20T07:08:12.715Z,19.30
2018-12-20T07:09:12.708Z,19.30
2018-12-20T07:11:05.693Z,19.01
2018-12-20T07:12:05.737Z,19.11
2018-12-20T07:13:58.718Z,19.10
2018-12-20T07:14:58.774Z,19.11
2018-12-20T07:16:51.770Z,18.81
2018-12-20T07:17:51.815Z,18.82
2018-12-20T07:19:44.792Z,18.53
2018-12-20T07:20:44.841Z,18.92
2018-12-20T07:22:37.819Z,18.81
2018-12-20T07:23:37.876Z,18.63
2018-12-20T07:25:30.860Z,18.92
2018-12-20T07:26:30.908Z,18.73
2018-12-20T07:28:24.399Z,19.11
2018-12-20T07:29:24.487Z,18.81
2018-12-20T07:31:17.429Z,19.11
2018-12-20T07:32:24.885Z,19.11
2018-12-20T07:34:10.491Z,19.20
2018-12-20T07:35:10.513Z,19.20
2018-12-20T07:37:03.501Z,19.20
2018-12-20T07:38:03.551Z,19.01
2018-12-20T07:39:56.540Z,19.11
2018-12-20T07:40:56.587Z,19.68
2018-12-20T07:42:49.562Z,19.38
2018-12-20T07:43:49.624Z,19.38
2018-12-20T07:45:42.602Z,19.38
2018-12-20T07:46:42.653Z,19.57
2018-12-20T07:48:35.630Z,19.10
2018-12-20T07:49:35.683Z,19.01
2018-12-20T07:51:28.667Z,18.81
2018-12-20T07:52:28.718Z,19.20
2018-12-20T07:54:21.693Z,19.01
2018-12-20T07:55:21.750Z,19.38
2018-12-20T07:57:14.731Z,19.48
2018-12-20T07:58:14.778Z,19.59
2018-12-20T08:00:07.762Z,19.67
2018-12-20T08:01:07.812Z,19.76
2018-12-20T08:03:00.786Z,20.25
2018-12-20T08:04:00.841Z,20.34
2018-12-20T08:05:53.822Z,20.25
2018-12-20T08:06:53.873Z,20.25
2018-12-20T08:08:46.876Z,20.44
2018-12-20T08:09:46.906Z,20.63
2018-12-20T08:11:39.911Z,20.53
2018-12-20T08:12:39.944Z,20.73
2018-12-20T08:14:32.929Z,20.82
2018-12-20T08:15:33.047Z,21.30
2018-12-20T08:17:25.969Z,21.11
2018-12-20T08:18:26.013Z,21.67
2018-12-20T08:20:18.994Z,21.20
2018-12-20T08:21:19.046Z,21.30
2018-12-20T08:23:12.022Z,21.58
2018-12-20T08:24:12.081Z,21.58
2018-12-20T08:26:05.062Z,22.44
2018-12-20T08:27:05.167Z,22.53
2018-12-20T08:28:58.597Z,22.81
2018-12-20T08:29:58.650Z,22.81
2018-12-20T08:31:51.687Z,22.53
2018-12-20T08:32:51.681Z,22.63
2018-12-20T08:34:44.663Z,22.53
2018-12-20T08:35:44.722Z,22.63
2018-12-20T08:37:37.760Z,22.91
2018-12-20T08:38:37.760Z,22.63
2018-12-20T08:40:30.752Z,22.81
2018-12-20T08:41:30.805Z,23.00
2018-12-20T08:43:23.784Z,22.91
2018-12-20T08:44:23.837Z,22.72
2018-12-20T08:46:16.824Z,23.10
2018-12-20T08:47:16.867Z,22.91
2018-12-20T08:49:09.849Z,22.53
2018-12-20T08:50:09.902Z,22.53
2018-12-20T08:52:02.883Z,23.00
2018-12-20T08:53:02.950Z,23.00
2018-12-20T08:54:55.910Z,23.00
2018-12-20T08:55:55.968Z,23.00
2018-12-20T08:57:48.954Z,23.00
2018-12-20T08:58:48.999Z,23.10
2018-12-20T09:00:41.983Z,23.10
2018-12-20T09:01:42.047Z,22.72
2018-12-20T09:03:35.009Z,22.63
2018-12-20T09:04:35.064Z,23.29
2018-12-20T09:06:28.049Z,23.20
2018-12-20T09:07:28.100Z,23.39
2018-12-20T09:09:21.074Z,23.39
2018-12-20T09:10:21.206Z,23.20
2018-12-20T09:12:14.111Z,23.48
2018-12-20T09:13:14.162Z,23.29
2018-12-20T09:15:07.149Z,23.29
2018-12-20T09:16:07.197Z,23.48
2018-12-20T09:18:00.186Z,23.67
2018-12-20T09:19:00.266Z,23.29
2018-12-20T09:20:53.222Z,23.39
2018-12-20T09:21:53.270Z,23.67
2018-12-20T09:23:46.262Z,23.77
2018-12-20T09:24:46.300Z,24.34
2018-12-20T09:26:39.291Z,24.72
2018-12-20T09:27:39.343Z,24.44
2018-12-20T09:29:32.320Z,24.63
2018-12-20T09:30:32.376Z,25.02
2018-12-20T09:32:25.365Z,25.30
2018-12-20T09:33:25.526Z,25.02
2018-12-20T09:35:18.392Z,25.49
2018-12-20T09:36:18.444Z,25.87
2018-12-20T09:38:11.428Z,26.16
2018-12-20T09:39:11.475Z,26.16
2018-12-20T09:41:04.516Z,26.73
2018-12-20T09:42:04.506Z,26.73
2018-12-20T09:43:57.493Z,27.30
2018-12-20T09:44:57.577Z,27.97
2018-12-20T09:46:50.553Z,27.87
2018-12-20T09:47:50.582Z,28.16
2018-12-20T09:49:43.603Z,28.16
2018-12-20T09:50:43.618Z,29.11
2018-12-20T09:52:36.604Z,29.30
2018-12-20T09:53:36.655Z,29.77
2018-12-20T09:55:29.641Z,30.54
2018-12-20T09:56:29.689Z,30.34
2018-12-20T09:58:22.692Z,30.63
2018-12-20T09:59:22.726Z,29.96
2018-12-20T10:01:15.708Z,30.06
2018-12-20T10:02:15.757Z,30.26
2018-12-20T10:04:08.731Z,31.01
2018-12-20T10:05:08.795Z,30.93
2018-12-20T10:07:01.780Z,31.60
2018-12-20T10:08:01.829Z,31.98
2018-12-20T10:09:54.809Z,34.07
2018-12-20T10:10:54.876Z,33.78
2018-12-20T10:12:47.853Z,34.36
2018-12-20T10:13:47.901Z,36.35
2018-12-20T10:15:40.890Z,35.97
2018-12-20T10:16:40.936Z,37.49
2018-12-20T10:18:33.985Z,36.37
2018-12-20T10:19:33.972Z,37.88
2018-12-20T10:21:26.957Z,37.99
2018-12-20T10:22:27.010Z,37.32
2018-12-20T10:24:19.990Z,38.07
2018-12-20T10:25:20.046Z,38.37
2018-12-20T10:27:13.036Z,38.18
2018-12-20T10:28:14.175Z,39.04
2018-12-20T10:30:06.059Z,39.32
2018-12-20T10:31:06.114Z,38.37
2018-12-20T10:32:59.109Z,38.09
2018-12-20T10:33:59.155Z,38.07
2018-12-20T10:35:52.166Z,37.99
2018-12-20T10:36:52.184Z,37.99
2018-12-20T10:38:45.165Z,38.28
2018-12-20T10:39:45.220Z,37.69
2018-12-20T10:41:38.210Z,37.23
2018-12-20T10:42:38.260Z,36.08
2018-12-20T10:44:31.252Z,36.83
2018-12-20T10:45:31.480Z,36.93
2018-12-20T10:47:28.900Z,36.16
2018-12-20T10:48:24.334Z,35.78
2018-12-20T10:50:17.317Z,36.16
2018-12-20T10:51:17.375Z,35.50
2018-12-20T10:53:10.366Z,35.50
2018-12-20T10:54:10.411Z,36.35
2018-12-20T10:56:03.403Z,35.78
2018-12-20T10:57:03.449Z,35.69
2018-12-20T10:58:56.429Z,37.02
2018-12-20T10:59:56.491Z,36.26
2018-12-20T11:01:49.471Z,36.07
2018-12-20T11:02:49.519Z,36.35
2018-12-20T11:04:42.507Z,37.21
2018-12-20T11:05:42.551Z,37.97
2018-12-20T11:07:35.543Z,37.21
2018-12-20T11:08:35.591Z,37.69
2018-12-20T11:10:28.568Z,35.88
2018-12-20T11:11:28.625Z,35.97
2018-12-20T11:13:21.617Z,36.93
2018-12-20T11:14:21.668Z,36.07
2018-12-20T11:16:14.663Z,37.78
2018-12-20T11:17:14.704Z,37.97
2018-12-20T11:19:07.685Z,37.30
2018-12-20T11:20:07.742Z,37.78
2018-12-20T11:22:00.733Z,38.92
2018-12-20T11:23:00.783Z,39.12
2018-12-20T11:24:53.764Z,39.21
2018-12-20T11:25:53.820Z,38.64
2018-12-20T11:27:46.809Z,37.69
2018-12-20T11:28:46.857Z,37.78
2018-12-20T11:30:39.834Z,38.73
2018-12-20T11:31:39.890Z,37.59
2018-12-20T11:33:32.879Z,39.12
2018-12-20T11:34:32.926Z,39.12
2018-12-20T11:36:25.903Z,38.07
2018-12-20T11:37:25.962Z,38.07
2018-12-20T11:39:18.950Z,37.69
2018-12-20T11:40:18.998Z,37.02
2018-12-20T11:42:11.983Z,35.97
2018-12-20T11:43:12.030Z,34.17
2018-12-20T11:45:05.012Z,33.69
2018-12-20T11:46:05.070Z,33.40
2018-12-20T11:47:58.055Z,31.69
2018-12-20T11:48:58.105Z,32.45
2018-12-20T11:50:51.125Z,32.55
2018-12-20T11:51:51.140Z,33.59
2018-12-20T11:53:44.129Z,32.74
2018-12-20T11:54:44.177Z,32.45
2018-12-20T11:56:37.158Z,33.88
2018-12-20T11:57:37.212Z,32.83
2018-12-20T11:59:30.206Z,32.83
2018-12-20T12:00:30.264Z,33.59
2018-12-20T12:02:24.627Z,34.36
2018-12-20T12:03:23.297Z,34.74
2018-12-20T12:05:16.280Z,34.55
2018-12-20T12:06:16.334Z,34.26
2018-12-20T12:08:09.318Z,36.16
2018-12-20T12:09:09.373Z,35.31
2018-12-20T12:11:02.349Z,35.69
2018-12-20T12:12:02.401Z,35.21
2018-12-20T12:13:55.386Z,37.12
2018-12-20T12:14:55.436Z,37.88
2018-12-20T12:16:48.413Z,38.17
2018-12-20T12:17:54.202Z,38.17
2018-12-20T12:19:41.455Z,37.78
2018-12-20T12:20:41.504Z,38.17
2018-12-20T12:22:34.492Z,38.07
2018-12-20T12:23:34.542Z,39.21
2018-12-20T12:25:27.525Z,40.35
2018-12-20T12:26:27.584Z,39.61
2018-12-20T12:28:21.077Z,39.70
2018-12-20T12:29:21.125Z,39.99
2018-12-20T12:31:14.104Z,39.70
2018-12-20T12:32:14.160Z,41.23
2018-12-20T12:34:07.152Z,42.08
2018-12-20T12:35:07.204Z,41.89
2018-12-20T12:37:00.179Z,42.37
2018-12-20T12:38:00.237Z,41.52
2018-12-20T12:39:53.228Z,40.28
2018-12-20T12:40:53.274Z,41.04
2018-12-20T12:42:46.273Z,42.08
2018-12-20T12:43:50.871Z,43.04
2018-12-20T12:45:39.297Z,42.64
2018-12-20T12:46:39.353Z,42.07
2018-12-20T12:48:32.346Z,43.49
2018-12-20T12:49:32.395Z,42.35
2018-12-20T12:51:25.408Z,42.16
2018-12-20T12:52:25.429Z,41.69
2018-12-20T12:54:18.414Z,41.59
2018-12-20T12:55:18.463Z,42.25
2018-12-20T12:57:11.454Z,41.21
2018-12-20T12:58:11.504Z,42.35
2018-12-20T13:00:04.497Z,43.21
2018-12-20T13:01:04.537Z,42.73
2018-12-20T13:02:57.528Z,42.83
2018-12-20T13:03:57.582Z,42.25
2018-12-20T13:05:50.554Z,43.40
2018-12-20T13:06:50.612Z,42.07
2018-12-20T13:08:43.595Z,42.73
2018-12-20T13:09:43.644Z,42.54
2018-12-20T13:11:36.627Z,42.73
2018-12-20T13:12:36.687Z,42.54
2018-12-20T13:14:29.680Z,42.35
2018-12-20T13:15:29.719Z,41.40
2018-12-20T13:17:22.700Z,42.16
2018-12-20T13:18:22.760Z,41.30
2018-12-20T13:20:15.747Z,39.87
2018-12-20T13:21:15.790Z,37.88
2018-12-20T13:23:08.791Z,37.02
2018-12-20T13:24:08.838Z,35.97
2018-12-20T13:26:01.819Z,35.60
2018-12-20T13:27:01.878Z,34.45
2018-12-20T13:28:54.857Z,33.40
2018-12-20T13:29:54.917Z,33.59
2018-12-20T13:31:47.889Z,32.45
2018-12-20T13:32:47.957Z,31.98
2018-12-20T13:34:40.935Z,30.65
2018-12-20T13:35:40.984Z,30.36
2018-12-20T13:37:33.963Z,29.60
2018-12-20T13:38:34.026Z,29.50
2018-12-20T13:40:27.053Z,28.45
2018-12-20T13:41:27.058Z,28.34
2018-12-20T13:43:20.043Z,29.86
2018-12-20T13:44:20.098Z,29.50
2018-12-20T13:46:13.088Z,28.92
2018-12-20T13:47:13.140Z,29.68
2018-12-20T13:49:06.133Z,29.20
2018-12-20T13:50:06.184Z,29.11
2018-12-20T13:51:59.179Z,29.77
2018-12-20T13:52:59.283Z,29.77
2018-12-20T13:54:52.221Z,30.46
2018-12-20T13:55:52.275Z,30.54
2018-12-20T13:57:45.248Z,30.34
2018-12-20T13:58:45.352Z,29.77
2018-12-20T14:00:38.293Z,29.11
2018-12-20T14:01:38.342Z,29.11
2018-12-20T14:03:31.339Z,29.01
2018-12-20T14:04:31.511Z,29.11
2018-12-20T14:06:24.377Z,30.06
2018-12-20T14:07:24.429Z,30.06
2018-12-20T14:09:19.840Z,30.54
2018-12-20T14:10:17.966Z,30.63
2018-12-20T14:12:10.954Z,30.15
2018-12-20T14:13:11.001Z,30.91
2018-12-20T14:15:03.987Z,30.25
2018-12-20T14:16:05.453Z,31.39
2018-12-20T14:17:57.015Z,30.91
2018-12-20T14:18:57.070Z,30.06
2018-12-20T14:20:50.065Z,31.20
2018-12-20T14:21:50.112Z,30.82
2018-12-20T14:23:43.085Z,30.82
2018-12-20T14:24:43.144Z,30.63
2018-12-20T14:26:36.131Z,30.91
2018-12-20T14:27:36.175Z,31.01
2018-12-20T14:29:29.187Z,30.73
2018-12-20T14:30:29.242Z,30.91
2018-12-20T14:32:22.231Z,31.58
2018-12-20T14:33:22.281Z,32.43
2018-12-20T14:35:15.267Z,32.34
2018-12-20T14:36:15.312Z,31.96
2018-12-20T14:38:08.287Z,32.15
2018-12-20T14:39:08.504Z,32.06
2018-12-20T14:41:01.330Z,32.06
2018-12-20T14:42:01.385Z,31.96
2018-12-20T14:43:54.364Z,31.58
2018-12-20T14:44:54.416Z,30.91
2018-12-20T14:46:47.404Z,30.25
2018-12-20T14:47:47.450Z,30.06
2018-12-20T14:49:40.431Z,29.01
2018-12-20T14:50:40.487Z,28.92
2018-12-20T14:52:33.471Z,28.34
2018-12-20T14:53:33.520Z,28.34
2018-12-20T14:55:26.850Z,27.97
2018-12-20T14:56:26.553Z,27.20
2018-12-20T14:58:19.571Z,26.64
2018-12-20T14:59:19.613Z,26.25
2018-12-20T15:01:12.604Z,25.95
2018-12-20T15:02:12.653Z,25.59
2018-12-20T15:04:05.644Z,25.01
2018-12-20T15:05:05.687Z,25.29
2018-12-20T15:06:58.677Z,24.73
2018-12-20T15:07:58.726Z,25.01
2018-12-20T15:09:52.215Z,24.81
2018-12-20T15:10:52.265Z,24.81
2018-12-20T15:12:45.268Z,24.91
2018-12-20T15:13:45.318Z,25.01
2018-12-20T15:15:38.301Z,24.91
2018-12-20T15:16:38.372Z,24.91
2018-12-20T15:18:31.334Z,25.01
2018-12-20T15:19:31.385Z,24.62
2018-12-20T15:21:24.378Z,24.34
2018-12-20T15:22:24.424Z,24.34
2018-12-20T15:24:17.401Z,23.96
2018-12-20T15:25:18.433Z,24.15
2018-12-20T15:27:10.444Z,24.24
2018-12-20T15:28:10.492Z,24.05
2018-12-20T15:30:03.497Z,24.53
2018-12-20T15:31:03.529Z,24.15
2018-12-20T15:32:56.529Z,24.15
2018-12-20T15:33:56.568Z,24.15
2018-12-20T15:35:49.552Z,23.96
2018-12-20T15:36:49.593Z,24.34
2018-12-20T15:38:42.574Z,24.34
2018-12-20T15:39:42.627Z,24.34
2018-12-20T15:41:35.612Z,24.15
2018-12-20T15:42:35.663Z,24.24
2018-12-20T15:44:28.642Z,23.86
2018-12-20T15:45:28.693Z,23.77
2018-12-20T15:47:21.682Z,23.77
2018-12-20T15:48:21.733Z,23.67
2018-12-20T15:50:14.707Z,23.29
2018-12-20T15:51:14.764Z,23.58
2018-12-20T15:53:07.746Z,23.48
2018-12-20T15:54:07.804Z,23.10
2018-12-20T15:56:02.548Z,22.91
2018-12-20T15:57:00.828Z,22.81
2018-12-20T15:58:53.815Z,22.63
2018-12-20T15:59:53.869Z,22.53
2018-12-20T16:01:46.852Z,22.53
2018-12-20T16:02:46.904Z,22.25
2018-12-20T16:04:39.876Z,22.44
2018-12-20T16:05:39.929Z,22.25
2018-12-20T16:07:32.929Z,21.86
2018-12-20T16:08:32.976Z,21.67
2018-12-20T16:10:25.959Z,21.30
2018-12-20T16:11:26.007Z,21.48
2018-12-20T16:13:18.999Z,21.11
2018-12-20T16:14:19.045Z,21.20
2018-12-20T16:16:12.054Z,21.39
2018-12-20T16:17:12.080Z,21.30
2018-12-20T16:19:05.328Z,21.30
2018-12-20T16:20:05.142Z,21.39
2018-12-20T16:21:58.111Z,21.11
2018-12-20T16:22:58.157Z,21.01
2018-12-20T16:24:51.128Z,21.01
2018-12-20T16:25:51.186Z,20.82
2018-12-20T16:27:44.175Z,20.34
2018-12-20T16:28:44.221Z,20.63
2018-12-20T16:30:37.193Z,20.53
2018-12-20T16:31:37.249Z,20.73
2018-12-20T16:33:30.245Z,20.53
2018-12-20T16:34:30.280Z,20.25
2018-12-20T16:36:23.265Z,20.63
2018-12-20T16:37:23.315Z,20.25
2018-12-20T16:39:16.292Z,20.25
2018-12-20T16:40:16.347Z,19.68
2018-12-20T16:42:09.331Z,20.25
2018-12-20T16:43:09.381Z,19.59
2018-12-20T16:45:02.369Z,19.59
2018-12-20T16:46:02.414Z,19.49
2018-12-20T16:47:55.395Z,19.39
2018-12-20T16:48:55.442Z,19.30
2018-12-20T16:50:48.422Z,19.39
2018-12-20T16:51:48.472Z,19.20
2018-12-20T16:53:41.471Z,19.49
2018-12-20T16:54:41.508Z,19.59
2018-12-20T16:56:34.489Z,19.78
2018-12-20T16:57:34.641Z,19.78
2018-12-20T16:59:27.516Z,20.06
2018-12-20T17:00:27.570Z,19.96
2018-12-20T17:02:20.564Z,19.96
2018-12-20T17:03:20.606Z,19.59
2018-12-20T17:05:13.578Z,19.96
2018-12-20T17:06:13.641Z,20.25
2018-12-20T17:08:06.618Z,19.68
2018-12-20T17:09:06.668Z,19.59
2018-12-20T17:10:59.643Z,19.87
2018-12-20T17:11:59.698Z,19.68
2018-12-20T17:13:52.708Z,19.78
2018-12-20T17:14:52.741Z,19.78
2018-12-20T17:16:45.728Z,19.30
2018-12-20T17:17:45.772Z,19.20
2018-12-20T17:19:38.765Z,19.20
2018-12-20T17:20:38.828Z,18.92
2018-12-20T17:22:31.807Z,18.73
2018-12-20T17:23:35.530Z,19.01
2018-12-20T17:25:24.856Z,18.35
2018-12-20T17:26:24.887Z,18.54
2018-12-20T17:28:17.889Z,18.35
2018-12-20T17:29:17.937Z,18.16
2018-12-20T17:31:10.915Z,17.87
2018-12-20T17:32:10.969Z,17.78
2018-12-20T17:34:03.971Z,17.78
2018-12-20T17:35:04.005Z,17.87
2018-12-20T17:36:56.997Z,17.78
2018-12-20T17:37:57.045Z,17.49
2018-12-20T17:39:50.028Z,17.97
2018-12-20T17:40:50.091Z,17.68
2018-12-20T17:42:43.073Z,17.68
2018-12-20T17:43:43.119Z,17.68
2018-12-20T17:45:36.980Z,17.49
2018-12-20T17:46:36.154Z,17.68
2018-12-20T17:48:29.539Z,17.58
2018-12-20T17:49:30.614Z,17.87
2018-12-20T17:51:22.163Z,17.68
2018-12-20T17:52:22.224Z,17.87
2018-12-20T17:54:15.202Z,18.06
2018-12-20T17:55:15.249Z,18.16
2018-12-20T17:57:08.240Z,18.26
2018-12-20T17:58:08.285Z,18.44
2018-12-20T18:00:01.273Z,18.54
2018-12-20T18:01:01.317Z,18.54
2018-12-20T18:02:54.306Z,18.73
2018-12-20T18:03:54.356Z,18.44
2018-12-20T18:05:47.358Z,18.92
2018-12-20T18:06:47.415Z,19.20
2018-12-20T18:08:41.911Z,19.01
2018-12-20T18:09:42.205Z,19.49
2018-12-20T18:11:34.931Z,19.68
2018-12-20T18:12:34.988Z,19.68
2018-12-20T18:14:27.975Z,19.59
2018-12-20T18:15:28.028Z,19.68
2018-12-20T18:17:21.006Z,20.44
2018-12-20T18:18:21.060Z,20.63
2018-12-20T18:20:14.038Z,21.01
2018-12-20T18:21:14.090Z,21.01
2018-12-20T18:23:07.081Z,20.82
2018-12-20T18:24:07.147Z,20.82
2018-12-20T18:26:00.111Z,20.82
2018-12-20T18:27:00.242Z,20.92
2018-12-20T18:28:53.146Z,20.73
2018-12-20T18:29:53.190Z,20.63
2018-12-20T18:31:46.209Z,20.82
2018-12-20T18:32:46.224Z,20.82
2018-12-20T18:34:39.213Z,20.34